Garrison, New York
Current Conditions -  °F | °C
As of 8:45 AM on Wednesday 28 Jan 2015 (Local Time) from KSWF Reporting Station
Scattered Clouds Scattered Clouds  
Wind Chill:   Ceiling: Unl
Heat Index: 14°   Visibility: 20mi
Dew Point:   Wind: 7mph
Humidity: 62%   Direction: 320°NW
Pressure: 30.01"   Gusts: NA
Location:  41.38°N, 73.95°W
Report Text: KSWF 281345Z 32006KT 20SM SCT100 M10/M16 A3001
Loading
Personal Weather Stations






























Interactive Weather Map New forecast layout! Learn more

10-Day Weather Forecast

Advertisements
Track Severe Weather on mobile